Observations for NASHVILLE METRO, TN (BNA)

KBNA 230753Z 04004KT 10SM OVC120 18/12 A2987 RMK AO2 SLP108 T01780122 $ 
KBNA 230653Z 03004KT 10SM OVC150 18/13 A2989 RMK AO2 SLP116 T01830128 $ 
KBNA 230553Z COR 02006KT 10SM OVC150 18/12 A2990 RMK AO2 SLP119 T01780122 10211 20178 402440156 58024 $ 
KBNA 230453Z 08005KT 10SM OVC150 19/13 A2994 RMK AO2 SLP135 T01890128 $ 
KBNA 230353Z 02005KT 10SM OVC150 19/13 A2996 RMK AO2 SLP140 T01890128 $ 
KBNA 230253Z 03006KT 10SM OVC150 19/13 A2997 RMK AO2 SLP144 T01940128 58002 
KBNA 230153Z 04005KT 10SM BKN150 OVC250 20/12 A2998 RMK AO2 SLP146 T02000122
KBNA 230053Z 06005KT 10SM BKN150 OVC250 21/11 A2997 RMK AO2 SLP143 T02110111
KBNA 222353Z 07006KT 10SM FEW120 SCT160 OVC250 21/11 A2998 RMK AO2 SLP146 T02110106 10244 20211 58014   
KBNA 222253Z 06006KT 10SM FEW180 OVC250 22/10 A2999 RMK AO2 SLP151 T02220100
KBNA 222153Z 03007KT 10SM FEW120 BKN250 23/11 A3001 RMK AO2 SLP157 T02280106
KBNA 222053Z 10004KT 10SM FEW120 BKN250 23/10 A3002 RMK AO2 SLP160 T02330100 58029  
KBNA 221953Z 34003KT 10SM FEW045 FEW120 BKN250 24/08 A3006 RMK AO2 SLP173 T02390078 
KBNA 221853Z VRB04KT 10SM FEW050 SCT200 SCT250 23/09 A3008 RMK AO2 SLP180 T02330094 
KBNA 221753Z 05006KT 10SM SCT200 BKN250 23/10 A3011 RMK AO2 SLP189 T02280100 10228 20167 58018  
KBNA 221653Z 06007KT 10SM FEW150 SCT200 BKN250 22/09 A3012 RMK AO2 SLP194 T02170089 
KBNA 221553Z 07007KT 10SM BKN200 OVC250 20/09 A3015 RMK AO2 SLP203 T02000089
KBNA 221453Z 06011KT 10SM FEW080 BKN200 OVC250 19/09 A3016 RMK AO2 SLP207 T01940089 56004   
KBNA 221353Z 07010KT 10SM FEW080 SCT140 BKN200 OVC250 18/09 A3017 RMK AO2 SLP212 T01830089  
KBNA 221253Z 05012KT 10SM FEW130 BKN200 OVC250 18/11 A3016 RMK AO2 SLP206 T01780106 $   
KBNA 221153Z 03007KT 10SM FEW200 BKN250 17/12 A3017 RMK AO2 SLP211 T01720122 10200 20156 51019 $
KBNA 221053Z 01006KT 10SM BKN250 16/12 A3016 RMK AO2 SLP208 T01560117 $ 
KBNA 220953Z 01007KT 10SM BKN250 17/12 A3013 RMK AO2 SLP197 T01670117 $ 
KBNA 220853Z 36009KT 10SM BKN250 17/12 A3011 RMK AO2 SLP192 T01720117 51007 $   
KBNA 220753Z 36008KT 10SM BKN250 18/12 A3011 RMK AO2 SLP191 T01780117 $